Time;durP1;ratioP1;P1;durP2;ratioP2;P2;SDS_P1;SDS_P2;PMS_P1;PMS_P2;Temp;Humidity;BMP_temperature;BMP_pressure;BME280_temperature;BME280_humidity;BME280_pressure;Samples;Min_cycle;Max_cycle;Signal;HPM_P1;HPM_P2
2021/06/28 00:00:43;;;;;;;1.37;0.87;;;23.10;34.50;;;;;;20676679;28;20050;-63
2021/06/28 00:10:44;;;;;;;2.35;1.40;;;23.10;34.80;;;;;;20675332;28;20050;-64
2021/06/28 00:20:47;;;;;;;1.50;1.03;;;22.90;35.40;;;;;;20657832;28;20077;-65
2021/06/28 00:30:50;;;;;;;2.38;1.30;;;22.70;34.80;;;;;;20674728;28;20512;-66
2021/06/28 00:40:52;;;;;;;2.47;1.23;;;22.60;34.40;;;;;;20673492;28;20364;-65
2021/06/28 00:50:55;;;;;;;2.20;1.00;;;22.50;33.40;;;;;;20673132;28;20178;-65
2021/06/28 01:00:57;;;;;;;2.05;0.80;;;22.40;32.70;;;;;;20671011;28;20050;-62
2021/06/28 01:11:01;;;;;;;1.87;0.90;;;22.20;31.70;;;;;;20671461;28;20483;-63
2021/06/28 01:21:06;;;;;;;1.33;0.80;;;22.00;31.90;;;;;;20670649;28;20054;-64
2021/06/28 01:31:12;;;;;;;3.25;1.08;;;21.90;32.10;;;;;;20669707;28;20142;-64
2021/06/28 01:41:15;;;;;;;3.22;0.90;;;21.90;32.80;;;;;;20668354;28;20051;-61
2021/06/28 01:51:22;;;;;;;2.88;1.17;;;21.80;33.60;;;;;;20668959;28;20054;-61
2021/06/28 02:01:32;;;;;;;6.18;1.20;;;21.80;35.10;;;;;;20668054;28;20061;-60
2021/06/28 02:11:38;;;;;;;3.15;1.20;;;21.80;34.40;;;;;;20666581;28;20050;-61
2021/06/28 02:21:46;;;;;;;2.67;1.00;;;21.70;34.70;;;;;;20648450;28;20410;-61
2021/06/28 02:31:50;;;;;;;1.98;0.90;;;21.70;36.10;;;;;;20666150;28;20050;-60
2021/06/28 02:41:58;;;;;;;2.97;1.00;;;21.60;35.50;;;;;;20665789;28;20046;-63
2021/06/28 02:52:04;;;;;;;1.65;1.30;;;21.40;35.30;;;;;;20665475;28;20054;-60
2021/06/28 03:02:08;;;;;;;2.85;1.10;;;21.30;35.60;;;;;;20664782;28;20050;-60
2021/06/28 03:12:12;;;;;;;2.47;1.05;;;21.20;35.80;;;;;;20664776;28;20479;-60
2021/06/28 03:22:16;;;;;;;2.20;1.05;;;21.10;35.80;;;;;;20664461;28;20057;-65
2021/06/28 03:32:19;;;;;;;2.55;0.98;;;21.10;36.30;;;;;;20677170;28;20177;-60
2021/06/28 03:42:24;;;;;;;2.70;1.00;;;21.00;36.20;;;;;;20677565;28;20546;-64
2021/06/28 03:52:28;;;;;;;2.85;1.13;;;20.90;36.90;;;;;;20677579;28;20050;-63
2021/06/28 04:02:31;;;;;;;2.17;1.15;;;20.90;36.70;;;;;;20676380;28;20046;-60
2021/06/28 04:12:35;;;;;;;3.33;1.10;;;20.70;36.40;;;;;;20676566;28;20058;-60
2021/06/28 04:22:40;;;;;;;2.90;1.30;;;20.30;36.70;;;;;;20658196;28;20064;-62
2021/06/28 04:32:45;;;;;;;4.50;1.30;;;20.30;37.60;;;;;;20674264;28;20394;-64
2021/06/28 04:42:48;;;;;;;2.05;1.10;;;20.20;37.40;;;;;;20673224;28;20046;-64
2021/06/28 04:52:54;;;;;;;2.95;1.25;;;20.10;37.30;;;;;;20673110;28;20499;-61
2021/06/28 05:02:55;;;;;;;3.40;1.55;;;19.90;37.50;;;;;;20671802;28;20050;-64
2021/06/28 05:12:57;;;;;;;2.42;1.20;;;19.90;37.50;;;;;;20669319;28;20050;-65
2021/06/28 05:22:59;;;;;;;2.83;1.30;;;19.90;37.90;;;;;;20670190;28;20499;-64
2021/06/28 05:33:01;;;;;;;2.47;1.27;;;20.00;37.90;;;;;;20669866;28;20499;-61
2021/06/28 05:43:04;;;;;;;3.47;1.63;;;19.90;37.80;;;;;;20668931;28;20042;-59
2021/06/28 05:53:06;;;;;;;7.32;1.40;;;19.90;37.50;;;;;;20667489;28;20112;-63
2021/06/28 06:03:09;;;;;;;3.37;1.67;;;19.90;37.40;;;;;;20668584;28;20092;-64
2021/06/28 06:13:12;;;;;;;2.40;1.10;;;20.00;37.80;;;;;;20667455;28;20058;-59
2021/06/28 06:23:15;;;;;;;4.15;1.67;;;19.90;38.00;;;;;;20666815;28;20137;-64
2021/06/28 06:33:19;;;;;;;7.28;1.40;;;19.90;37.50;;;;;;20665770;28;20146;-61
2021/06/28 06:43:21;;;;;;;4.30;1.75;;;20.00;38.10;;;;;;20664788;28;20058;-62
2021/06/28 06:53:24;;;;;;;3.95;1.80;;;20.10;37.90;;;;;;20665892;28;20225;-60
2021/06/28 07:03:26;;;;;;;4.10;1.17;;;20.50;37.50;;;;;;20674879;28;20077;-60
2021/06/28 07:13:30;;;;;;;2.63;0.95;;;21.40;34.90;;;;;;20680178;28;20056;-61
2021/06/28 07:23:32;;;;;;;1.80;0.97;;;22.20;32.50;;;;;;20679894;28;20513;-60
2021/06/28 07:33:38;;;;;;;1.47;0.90;;;22.80;31.60;;;;;;20679339;28;20116;-61
2021/06/28 07:43:41;;;;;;;2.35;0.90;;;23.00;31.10;;;;;;20719089;28;20053;-67
2021/06/28 07:53:43;;;;;;;1.58;1.10;;;23.40;33.20;;;;;;20796347;28;20050;-64
2021/06/28 08:03:47;;;;;;;3.60;1.17;;;23.70;33.00;;;;;;20804687;28;20084;-58
2021/06/28 08:13:52;;;;;;;3.72;1.40;;;24.50;32.80;;;;;;20839128;28;20053;-60
2021/06/28 08:23:54;;;;;;;4.15;1.48;;;25.10;29.60;;;;;;20839889;28;20104;-64
2021/06/28 08:34:01;;;;;;;3.40;1.20;;;25.10;28.70;;;;;;20839164;28;20561;-62
2021/06/28 08:44:02;;;;;;;4.07;1.08;;;25.10;28.60;;;;;;20868420;28;20050;-76
2021/06/28 08:54:12;;;;;;;2.90;1.13;;;25.30;28.30;;;;;;20876625;28;20109;-69
2021/06/28 09:04:17;;;;;;;2.13;1.05;;;25.60;28.10;;;;;;20841162;28;20091;-60
2021/06/28 09:14:24;;;;;;;2.50;1.27;;;25.90;27.70;;;;;;20816464;28;20045;-60
2021/06/28 09:24:37;;;;;;;4.00;1.00;;;26.10;27.00;;;;;;20833329;28;20053;-58
2021/06/28 09:34:41;;;;;;;4.07;1.17;;;26.40;26.60;;;;;;20833136;28;20486;-60
2021/06/28 09:45:09;;;;;;;4.75;1.40;;;26.50;26.40;;;;;;20814201;28;20508;-59
2021/06/28 09:55:22;;;;;;;2.15;1.27;;;26.60;26.20;;;;;;20831276;28;20131;-66
2021/06/28 10:05:56;;;;;;;4.00;1.20;;;26.80;25.50;;;;;;20843433;28;20056;-76
2021/06/28 10:15:48;;;;;;;2.85;1.38;;;26.90;26.00;;;;;;20838655;28;20054;-81
2021/06/28 10:25:51;;;;;;;3.55;1.20;;;27.00;25.20;;;;;;20796519;28;20042;-61
2021/06/28 10:36:03;;;;;;;2.53;1.05;;;27.20;25.60;;;;;;20744461;28;20478;-60
2021/06/28 10:46:08;;;;;;;2.85;1.00;;;27.30;28.50;;;;;;20764443;28;20054;-62
2021/06/28 10:56:36;;;;;;;5.20;1.13;;;27.20;27.80;;;;;;20778703;28;20054;-61
2021/06/28 11:06:59;;;;;;;3.22;1.17;;;27.10;25.50;;;;;;20759918;28;20132;-72
2021/06/28 11:17:11;;;;;;;2.65;0.98;;;27.20;24.90;;;;;;20787153;28;20045;-59
2021/06/28 11:27:18;;;;;;;3.03;1.23;;;27.20;24.50;;;;;;20845656;28;20077;-68
2021/06/28 11:37:20;;;;;;;3.90;0.82;;;27.20;24.50;;;;;;20849456;28;20054;-65
2021/06/28 11:47:46;;;;;;;2.17;1.30;;;27.10;23.90;;;;;;20864664;28;20065;-66
2021/06/28 11:57:53;;;;;;;1.48;0.68;;;27.30;23.70;;;;;;20857282;28;20046;-71
2021/06/28 12:07:55;;;;;;;2.05;1.17;;;27.40;23.00;;;;;;20875126;28;20061;-70
2021/06/28 12:18:03;;;;;;;2.67;0.80;;;27.10;23.90;;;;;;20869421;28;20050;-60
2021/06/28 12:28:05;;;;;;;1.40;0.80;;;27.50;23.00;;;;;;20873804;28;20485;-64
2021/06/28 12:38:07;;;;;;;2.08;1.00;;;27.40;23.00;;;;;;20888639;28;20059;-73
2021/06/28 12:48:17;;;;;;;6.03;1.20;;;27.70;23.10;;;;;;20888354;28;20096;-68
2021/06/28 12:58:20;;;;;;;3.60;1.10;;;27.80;23.60;;;;;;20865081;28;20145;-65
2021/06/28 13:08:29;;;;;;;3.53;1.00;;;27.60;24.20;;;;;;20852473;28;20060;-70
2021/06/28 13:18:31;;;;;;;2.72;0.70;;;28.00;23.80;;;;;;20834923;28;20084;-60
2021/06/28 13:28:33;;;;;;;2.35;1.55;;;27.80;23.40;;;;;;20833739;28;20057;-74
2021/06/28 13:38:49;;;;;;;1.90;1.00;;;28.10;23.40;;;;;;20832706;28;20418;-60
2021/06/28 13:48:51;;;;;;;4.65;0.90;;;28.30;22.40;;;;;;20832772;28;20061;-62
2021/06/28 13:58:54;;;;;;;2.08;1.00;;;28.10;23.30;;;;;;20832576;28;20422;-72
2021/06/28 14:08:55;;;;;;;3.55;1.25;;;28.10;23.60;;;;;;20831128;28;20050;-64
2021/06/28 14:18:59;;;;;;;3.53;0.95;;;28.10;24.20;;;;;;20831265;28;20054;-64
2021/06/28 14:29:02;;;;;;;1.40;0.80;;;28.20;24.80;;;;;;20829158;28;20053;-75
2021/06/28 14:39:04;;;;;;;3.75;1.20;;;28.40;24.00;;;;;;20830361;28;20550;-66
2021/06/28 14:49:05;;;;;;;5.35;0.90;;;28.30;23.90;;;;;;20830593;28;20060;-76
2021/06/28 14:59:08;;;;;;;2.53;0.70;;;28.30;23.80;;;;;;20811622;28;20125;-72
2021/06/28 15:09:09;;;;;;;1.52;0.80;;;28.10;23.20;;;;;;20850090;28;20409;-77
2021/06/28 15:19:12;;;;;;;2.15;0.77;;;28.30;23.10;;;;;;20830928;28;20049;-61
2021/06/28 15:29:14;;;;;;;2.17;0.82;;;28.20;23.00;;;;;;20841501;28;20059;-63
2021/06/28 15:39:16;;;;;;;3.85;1.27;;;28.50;21.40;;;;;;20843697;28;20064;-74
2021/06/28 15:49:17;;;;;;;1.85;0.65;;;28.40;20.80;;;;;;20843205;28;20548;-71
2021/06/28 15:59:20;;;;;;;2.15;0.63;;;28.60;21.40;;;;;;20842689;28;20072;-74
2021/06/28 16:09:22;;;;;;;1.52;1.13;;;28.60;22.20;;;;;;20823398;28;20502;-75
2021/06/28 16:19:24;;;;;;;2.70;1.15;;;28.50;21.80;;;;;;20838909;28;20053;-76
2021/06/28 16:29:26;;;;;;;1.80;1.25;;;28.30;23.60;;;;;;20860849;28;20056;-75
2021/06/28 16:39:30;;;;;;;2.53;0.60;;;28.30;24.30;;;;;;20838973;28;20124;-58
2021/06/28 16:49:32;;;;;;;3.45;1.63;;;28.20;24.20;;;;;;20838550;28;20065;-73
2021/06/28 16:59:35;;;;;;;2.67;1.33;;;27.90;24.90;;;;;;20839843;28;20417;-74
2021/06/28 17:09:37;;;;;;;2.08;0.80;;;27.90;25.00;;;;;;20840941;28;20049;-75
2021/06/28 17:19:39;;;;;;;1.75;1.17;;;27.90;24.90;;;;;;20826359;28;20390;-80
2021/06/28 17:29:41;;;;;;;1.92;0.80;;;27.70;25.20;;;;;;20840694;28;20394;-58
2021/06/28 17:39:46;;;;;;;1.63;0.57;;;27.70;25.50;;;;;;20840879;28;20053;-78
2021/06/28 17:49:48;;;;;;;5.78;1.10;;;27.70;25.40;;;;;;20842952;28;20049;-62
2021/06/28 17:59:51;;;;;;;2.13;0.68;;;27.60;25.70;;;;;;20844949;28;20081;-59
2021/06/28 18:09:52;;;;;;;1.98;0.70;;;27.60;25.60;;;;;;20836030;28;20057;-62
2021/06/28 18:19:55;;;;;;;4.72;0.90;;;27.40;25.90;;;;;;20833440;28;20124;-69
2021/06/28 18:29:57;;;;;;;3.85;0.80;;;27.20;25.90;;;;;;20833387;28;20049;-74
2021/06/28 18:39:58;;;;;;;1.15;0.80;;;27.20;25.80;;;;;;20835160;28;20077;-75
2021/06/28 18:50:00;;;;;;;1.42;0.70;;;27.00;26.20;;;;;;20872177;28;20049;-76
2021/06/28 19:00:07;;;;;;;1.33;0.55;;;26.80;26.50;;;;;;20844760;28;20053;-79
2021/06/28 19:10:09;;;;;;;2.30;0.90;;;26.60;26.50;;;;;;20846311;28;20049;-59
2021/06/28 19:20:12;;;;;;;1.25;0.70;;;26.60;26.70;;;;;;20843922;28;20049;-71
2021/06/28 19:30:14;;;;;;;1.40;0.70;;;26.40;26.80;;;;;;20841814;28;20053;-71
2021/06/28 19:40:16;;;;;;;2.33;0.70;;;26.20;26.80;;;;;;20844052;28;20099;-68
2021/06/28 19:50:18;;;;;;;1.33;0.90;;;26.00;27.50;;;;;;20845444;28;20049;-73
2021/06/28 20:00:21;;;;;;;2.08;1.00;;;25.80;27.90;;;;;;20849507;28;20045;-72
2021/06/28 20:10:23;;;;;;;2.70;0.75;;;25.60;28.30;;;;;;20843316;28;20058;-72
2021/06/28 20:20:25;;;;;;;3.75;0.90;;;25.40;28.80;;;;;;20843504;28;20123;-62
2021/06/28 20:30:26;;;;;;;;;;;25.30;29.30;;;;;;20840285;28;20418;-66
2021/06/28 20:40:28;;;;;;;3.67;0.83;;;25.00;29.90;;;;;;20839021;28;19924;-72
2021/06/28 20:50:30;;;;;;;4.53;1.05;;;24.80;30.50;;;;;;20839954;28;20410;-75
2021/06/28 21:00:31;;;;;;;2.97;0.73;;;24.70;30.70;;;;;;20838464;28;20125;-67
2021/06/28 21:10:34;;;;;;;;;;;24.70;30.90;;;;;;20846116;28;20049;-77
2021/06/28 21:20:35;;;;;;;2.38;1.20;;;24.40;31.30;;;;;;20849899;28;20261;-75
2021/06/28 21:30:37;;;;;;;5.25;3.95;;;24.40;31.50;;;;;;20844148;28;20512;-73
2021/06/28 21:40:38;;;;;;;1.77;1.20;;;24.30;32.00;;;;;;20842746;28;20052;-59
2021/06/28 21:50:40;;;;;;;3.40;1.00;;;24.20;32.00;;;;;;20832871;28;20313;-60
2021/06/28 22:00:43;;;;;;;3.88;1.10;;;24.20;32.00;;;;;;20833533;28;20077;-61
2021/06/28 22:10:45;;;;;;;3.45;1.15;;;24.00;32.20;;;;;;20842010;28;20409;-74
2021/06/28 22:20:47;;;;;;;1.80;0.80;;;23.90;32.40;;;;;;20842774;28;20489;-78
2021/06/28 22:30:49;;;;;;;3.37;1.67;;;23.80;32.50;;;;;;20862608;28;20053;-77
2021/06/28 22:40:50;;;;;;;3.17;2.13;;;23.70;32.70;;;;;;20876639;28;20049;-76
2021/06/28 22:50:52;;;;;;;5.80;1.53;;;23.70;33.00;;;;;;20860720;28;20525;-59
2021/06/28 23:00:53;;;;;;;2.60;1.10;;;23.60;33.10;;;;;;20858741;28;20107;-60
2021/06/28 23:10:55;;;;;;;5.10;1.75;;;23.50;33.20;;;;;;20858295;28;20072;-59
2021/06/28 23:20:58;;;;;;;2.75;1.13;;;23.40;33.30;;;;;;20855495;28;20049;-58
2021/06/28 23:30:59;;;;;;;2.90;1.20;;;23.40;33.50;;;;;;20855424;28;20543;-71
2021/06/28 23:41:01;;;;;;;2.57;1.00;;;23.30;33.90;;;;;;20854213;28;20041;-75
2021/06/28 23:51:03;;;;;;;2.40;0.77;;;23.20;33.90;;;;;;20843645;28;20049;-76
